createdAt,value
2019-03-12T00:00:13.106Z,91.75
2019-03-12T00:01:11.663Z,92.42
2019-03-12T00:02:15.663Z,91.66
2019-03-12T00:03:11.663Z,92.61
2019-03-12T00:04:11.665Z,92.61
2019-03-12T00:05:12.166Z,92.90
2019-03-12T00:06:12.164Z,92.71
2019-03-12T00:07:12.162Z,92.23
2019-03-12T00:08:15.681Z,92.80
2019-03-12T00:09:12.671Z,92.80
2019-03-12T00:10:12.684Z,92.33
2019-03-12T00:11:12.662Z,92.61
2019-03-12T00:12:12.661Z,92.80
2019-03-12T00:13:37.661Z,93.46
2019-03-12T00:14:13.162Z,92.33
2019-03-12T00:15:13.181Z,92.61
2019-03-12T00:16:13.166Z,92.61
2019-03-12T00:18:49.393Z,92.04
2019-03-12T00:19:45.394Z,92.52
2019-03-12T00:20:45.393Z,93.46
2019-03-12T00:22:06.897Z,93.27
2019-03-12T00:22:45.897Z,93.46
2019-03-12T00:23:49.395Z,94.23
2019-03-12T00:24:45.897Z,94.13
2019-03-12T00:25:46.395Z,93.65
2019-03-12T00:26:46.393Z,93.18
2019-03-12T00:27:46.392Z,93.08
2019-03-12T00:28:50.393Z,92.71
2019-03-12T00:29:46.893Z,92.52
2019-03-12T00:32:39.756Z,93.46
2019-03-12T00:34:56.433Z,92.80
2019-03-12T00:36:10.995Z,91.28
2019-03-12T00:36:49.998Z,90.62
2019-03-12T00:38:11.498Z,90.71
2019-03-12T00:38:50.497Z,91.94
2019-03-12T00:40:15.025Z,92.52
2019-03-12T00:40:50.498Z,92.23
2019-03-12T00:42:11.999Z,92.52
2019-03-12T00:43:11.998Z,92.52
2019-03-12T00:44:11.997Z,93.37
2019-03-12T00:44:51.000Z,93.56
2019-03-12T00:46:15.498Z,92.99
2019-03-12T00:46:51.497Z,93.37
2019-03-12T00:47:51.497Z,93.27
2019-03-12T00:48:51.499Z,93.08
2019-03-12T00:51:26.230Z,94.03
2019-03-12T00:52:23.227Z,94.18
2019-03-12T00:53:23.809Z,93.89
2019-03-12T00:54:23.827Z,94.13
2019-03-12T00:55:25.749Z,94.18
2019-03-12T00:56:48.238Z,94.65
2019-03-12T00:57:23.727Z,94.84
2019-03-12T00:58:24.224Z,94.98
2019-03-12T00:59:24.279Z,94.84
2019-03-12T01:00:24.235Z,94.84
2019-03-12T01:01:24.226Z,95.31
2019-03-12T01:02:28.229Z,95.46
2019-03-12T01:03:24.727Z,95.22
2019-03-12T01:04:24.759Z,95.41
2019-03-12T01:05:24.727Z,95.41
2019-03-12T01:06:25.226Z,95.27
2019-03-12T01:07:25.225Z,95.31
2019-03-12T01:08:28.226Z,95.41
2019-03-12T01:09:25.249Z,95.41
2019-03-12T01:10:46.732Z,95.36
2019-03-12T01:11:25.731Z,95.46
2019-03-12T01:12:25.725Z,95.36
2019-03-12T01:13:30.711Z,94.79
2019-03-12T01:15:57.441Z,94.13
2019-03-12T01:16:57.448Z,94.23
2019-03-12T01:18:18.453Z,94.23
2019-03-12T01:19:00.948Z,95.17
2019-03-12T01:19:57.955Z,93.84
2019-03-12T01:20:57.950Z,93.94
2019-03-12T01:21:57.951Z,93.94
2019-03-12T01:22:58.453Z,95.17
2019-03-12T01:24:22.448Z,95.27
2019-03-12T01:24:58.446Z,95.17
2019-03-12T01:25:58.449Z,95.46
2019-03-12T01:28:30.179Z,95.46
2019-03-12T01:29:34.185Z,95.65
2019-03-12T01:30:30.184Z,95.27
2019-03-12T01:31:51.692Z,95.55
2019-03-12T01:32:30.687Z,96.08
2019-03-12T01:33:33.118Z,95.69
2019-03-12T01:34:30.684Z,95.50
2019-03-12T01:35:35.195Z,95.88
2019-03-12T01:36:31.182Z,95.74
2019-03-12T01:37:34.121Z,95.41
2019-03-12T01:38:31.184Z,96.26
2019-03-12T01:39:31.682Z,95.98
2019-03-12T01:40:31.686Z,95.69
2019-03-12T01:41:35.198Z,95.88
2019-03-12T01:42:52.732Z,96.26
2019-03-12T01:45:03.417Z,96.55
2019-03-12T01:46:03.429Z,96.08
2019-03-12T01:47:07.429Z,96.36
2019-03-12T01:48:03.923Z,95.41
2019-03-12T01:49:03.925Z,95.22
2019-03-12T01:50:03.926Z,95.41
2019-03-12T01:51:03.925Z,95.22
2019-03-12T01:52:04.432Z,95.98
2019-03-12T01:53:07.423Z,95.79
2019-03-12T01:54:04.424Z,95.88
2019-03-12T01:55:04.423Z,96.08
2019-03-12T01:56:04.937Z,95.69
2019-03-12T01:57:04.927Z,96.08
2019-03-12T01:58:14.399Z,95.79
2019-03-12T01:59:04.922Z,95.22
2019-03-12T02:00:05.423Z,95.36
2019-03-12T02:01:05.424Z,95.55
2019-03-12T02:02:05.428Z,96.03
2019-03-12T02:03:05.438Z,95.46
2019-03-12T02:04:30.923Z,95.46
2019-03-12T02:05:06.034Z,95.55
2019-03-12T02:06:05.928Z,94.79
2019-03-12T02:07:05.932Z,95.17
2019-03-12T03:58:54.243Z,93.99
2019-03-12T03:59:29.163Z,93.80
2019-03-12T04:00:29.173Z,94.37
2019-03-12T04:01:29.181Z,93.99
2019-03-12T04:02:29.675Z,94.27
2019-03-12T04:03:29.666Z,95.03
2019-03-12T04:04:35.161Z,95.12
2019-03-12T04:05:29.669Z,95.03
2019-03-12T04:06:33.819Z,94.74
2019-03-12T04:07:51.168Z,94.93
2019-03-12T04:08:30.163Z,93.99
2019-03-12T04:09:34.175Z,95.12
2019-03-12T04:10:30.684Z,95.41
2019-03-12T04:11:30.664Z,95.50
2019-03-12T04:12:30.662Z,95.69
2019-03-12T04:13:30.665Z,95.31
2019-03-12T04:14:31.220Z,95.22
2019-03-12T04:15:35.161Z,95.26
2019-03-12T04:16:31.165Z,95.17
2019-03-12T04:17:31.168Z,95.55
2019-03-12T04:18:52.660Z,95.07
2019-03-12T04:19:31.667Z,95.26
2019-03-12T04:20:31.669Z,95.84
2019-03-12T04:23:06.456Z,95.17
2019-03-12T04:24:06.462Z,95.17
2019-03-12T04:25:06.480Z,95.17
2019-03-12T04:26:27.969Z,95.07
2019-03-12T04:27:10.455Z,95.17
2019-03-12T04:28:06.959Z,95.45
2019-03-12T04:29:06.958Z,95.36
2019-03-12T04:30:07.464Z,95.36
2019-03-12T04:31:07.461Z,95.65
2019-03-12T04:32:07.458Z,95.84
2019-03-12T04:33:11.458Z,95.74
2019-03-12T04:34:07.955Z,95.36
2019-03-12T04:35:07.953Z,95.07
2019-03-12T04:36:07.957Z,95.17
2019-03-12T04:37:07.961Z,94.89
2019-03-12T04:38:08.457Z,94.89
2019-03-12T04:39:11.464Z,94.70
2019-03-12T04:40:29.465Z,95.17
2019-03-12T04:41:08.465Z,95.26
2019-03-12T04:42:29.970Z,95.17
2019-03-12T04:43:08.960Z,95.17
2019-03-12T04:44:12.956Z,95.03
2019-03-12T04:45:08.957Z,95.17
2019-03-12T04:46:09.464Z,95.03
2019-03-12T04:47:09.457Z,94.84
2019-03-12T04:48:09.455Z,95.36
2019-03-12T04:49:09.459Z,94.79
2019-03-12T04:50:15.413Z,95.03
2019-03-12T04:51:09.958Z,95.26
2019-03-12T04:53:42.755Z,95.03
2019-03-12T04:54:41.329Z,94.04
2019-03-12T04:55:45.327Z,94.13
2019-03-12T04:57:04.829Z,93.75
2019-03-12T04:58:02.820Z,94.46
2019-03-12T04:58:41.815Z,94.65
2019-03-12T04:59:41.821Z,95.12
2019-03-12T05:00:42.335Z,94.93
2019-03-12T05:01:45.321Z,95.03
2019-03-12T05:02:42.320Z,94.74
2019-03-12T05:03:42.319Z,94.74
2019-03-12T05:04:42.818Z,94.74
2019-03-12T05:05:42.819Z,94.74
2019-03-12T05:06:46.843Z,94.65
2019-03-12T05:07:42.818Z,95.03
2019-03-12T05:08:43.320Z,94.08
2019-03-12T05:09:43.328Z,94.37
2019-03-12T05:11:04.317Z,94.84
2019-03-12T05:11:43.318Z,95.41
2019-03-12T05:12:47.825Z,95.60
2019-03-12T05:13:43.819Z,95.41
2019-03-12T05:14:43.158Z,95.60
2019-03-12T05:15:43.818Z,96.45
2019-03-12T05:16:43.818Z,95.98
2019-03-12T05:17:44.331Z,96.07
2019-03-12T05:18:47.818Z,96.36
2019-03-12T05:19:44.317Z,95.41
2019-03-12T05:20:44.322Z,95.98
2019-03-12T05:21:45.074Z,95.60
2019-03-12T05:22:44.875Z,95.60
2019-03-12T05:23:48.817Z,95.50
2019-03-12T05:24:44.820Z,95.60
2019-03-12T05:25:45.317Z,95.41
2019-03-12T05:26:45.317Z,95.50
2019-03-12T05:27:45.321Z,95.98
2019-03-12T05:30:24.057Z,95.79
2019-03-12T05:31:23.557Z,95.88
2019-03-12T05:32:21.123Z,95.41
2019-03-12T05:33:21.124Z,95.60
2019-03-12T05:34:24.628Z,95.79
2019-03-12T05:35:21.646Z,95.88
2019-03-12T05:36:21.622Z,95.98
2019-03-12T05:37:21.624Z,96.45
2019-03-12T05:38:43.119Z,95.41
2019-03-12T05:39:25.622Z,95.69
2019-03-12T05:40:22.122Z,94.84
2019-03-12T05:41:43.121Z,94.84
2019-03-12T05:42:22.623Z,95.03
2019-03-12T05:43:22.628Z,95.12
2019-03-12T05:44:22.645Z,95.03
2019-03-12T05:45:47.627Z,95.31
2019-03-12T05:46:23.121Z,95.03
2019-03-12T05:47:23.122Z,95.12
2019-03-12T05:48:23.123Z,95.31
2019-03-12T05:49:23.119Z,95.31
2019-03-12T05:50:23.632Z,95.41
2019-03-12T05:51:27.555Z,95.03
2019-03-12T05:52:23.616Z,95.22
2019-03-12T05:53:23.622Z,95.31
2019-03-12T05:54:24.121Z,95.79
2019-03-12T05:55:24.120Z,95.41
2019-03-12T05:56:27.620Z,95.50
2019-03-12T05:57:24.151Z,95.98
2019-03-12T05:58:45.620Z,95.12
2019-03-12T05:59:32.054Z,95.22
2019-03-12T06:00:23.978Z,95.12
2019-03-12T06:01:24.622Z,95.12
2019-03-12T06:02:49.624Z,95.03
2019-03-12T06:03:46.120Z,95.31
2019-03-12T06:04:25.119Z,95.22
2019-03-12T06:05:25.120Z,94.74
2019-03-12T06:06:25.619Z,94.70
2019-03-12T06:07:25.622Z,95.07
2019-03-12T06:08:28.619Z,94.89
2019-03-12T06:09:30.214Z,94.93
2019-03-12T06:10:26.119Z,95.12
2019-03-12T06:11:26.147Z,95.17
2019-03-12T06:12:26.125Z,95.36
2019-03-12T06:13:30.120Z,94.65
2019-03-12T06:15:57.852Z,95.03
2019-03-12T06:16:57.856Z,94.89
2019-03-12T06:17:57.858Z,94.89
2019-03-12T06:19:01.354Z,94.84
2019-03-12T06:19:58.357Z,94.89
2019-03-12T06:20:58.365Z,95.03
2019-03-12T06:23:30.460Z,94.65
2019-03-12T06:24:33.965Z,95.17
2019-03-12T06:25:30.463Z,94.84
2019-03-12T06:28:02.205Z,94.89
2019-03-12T06:29:02.199Z,95.07
2019-03-12T06:30:05.699Z,95.36
2019-03-12T06:31:02.700Z,95.07
2019-03-12T06:32:22.890Z,95.17
2019-03-12T06:33:02.712Z,95.07
2019-03-12T06:34:02.702Z,94.13
2019-03-12T06:35:06.699Z,94.04
2019-03-12T06:36:03.201Z,94.04
2019-03-12T06:37:05.204Z,94.13
2019-03-12T06:38:03.198Z,94.04
2019-03-12T06:40:38.302Z,93.46
2019-03-12T06:41:35.310Z,93.84
2019-03-12T06:42:34.773Z,93.56
2019-03-12T06:43:35.812Z,93.94
2019-03-12T06:44:34.896Z,94.04
2019-03-12T06:47:13.055Z,93.75
2019-03-12T06:48:11.626Z,93.46
2019-03-12T06:49:32.722Z,94.13
2019-03-12T06:50:11.623Z,93.56
2019-03-12T06:51:14.121Z,93.75
2019-03-12T06:52:14.557Z,93.08
2019-03-12T06:53:12.123Z,92.66
2019-03-12T06:54:12.122Z,93.04
2019-03-12T06:55:12.667Z,93.13
2019-03-12T06:56:16.621Z,93.32
2019-03-12T06:57:26.620Z,92.94
2019-03-12T06:58:12.620Z,92.76
2019-03-12T06:59:12.628Z,92.47
2019-03-12T07:00:13.128Z,92.18
2019-03-12T07:01:44.118Z,90.86
2019-03-12T07:02:13.121Z,89.62
2019-03-12T07:04:44.762Z,89.34
2019-03-12T07:05:44.734Z,88.87
2019-03-12T07:06:48.233Z,89.06
2019-03-12T07:07:45.901Z,87.92
2019-03-12T07:08:45.236Z,88.29
2019-03-12T07:09:45.232Z,88.87
2019-03-12T07:10:45.260Z,87.63
2019-03-12T07:11:49.233Z,87.45
2019-03-12T07:12:45.732Z,87.87
2019-03-12T07:13:45.072Z,88.15
2019-03-12T07:14:45.732Z,88.43
2019-03-12T07:15:45.735Z,87.96
2019-03-12T07:17:10.732Z,88.24
2019-03-12T07:18:07.232Z,88.06
2019-03-12T07:18:46.232Z,86.91
2019-03-12T07:19:46.231Z,86.44
2019-03-12T07:21:07.731Z,86.68
2019-03-12T07:21:46.732Z,86.40
2019-03-12T07:22:50.731Z,86.72
2019-03-12T07:23:46.730Z,88.06
2019-03-12T07:24:47.232Z,88.72
2019-03-12T07:25:49.582Z,88.62
2019-03-12T07:26:47.233Z,88.24
2019-03-12T07:27:47.232Z,88.91
2019-03-12T07:28:53.166Z,89.76
2019-03-12T07:30:08.731Z,89.95
2019-03-12T07:30:47.733Z,89.76
2019-03-12T07:31:47.731Z,88.43
2019-03-12T07:32:48.279Z,86.97
2019-03-12T07:33:48.235Z,87.06
2019-03-12T07:34:51.727Z,88.10
2019-03-12T07:35:48.230Z,88.29
2019-03-12T07:37:09.730Z,87.25
2019-03-12T07:37:50.730Z,88.77
2019-03-12T07:38:48.735Z,86.78
2019-03-12T07:39:52.730Z,86.87
2019-03-12T07:40:49.231Z,86.40
2019-03-12T07:41:49.230Z,87.06
2019-03-12T07:42:49.232Z,87.54
2019-03-12T07:43:49.233Z,89.15
2019-03-12T07:44:49.731Z,87.45
2019-03-12T07:45:53.729Z,87.06
2019-03-12T07:47:10.729Z,88.10
2019-03-12T07:47:49.733Z,87.06
2019-03-12T07:49:11.230Z,88.01
2019-03-12T07:49:50.229Z,88.68
2019-03-12T07:50:50.229Z,87.16
2019-03-12T07:51:53.729Z,87.73
2019-03-12T07:53:12.696Z,87.54
2019-03-12T07:53:59.392Z,88.10
2019-03-12T07:54:50.729Z,88.15
2019-03-12T07:55:50.729Z,86.82
2019-03-12T07:56:54.730Z,87.11
2019-03-12T07:58:12.232Z,87.58
2019-03-12T07:59:12.258Z,85.49
2019-03-12T07:59:51.228Z,84.50
2019-03-12T08:00:51.728Z,85.83
2019-03-12T08:01:51.729Z,86.72
2019-03-12T08:02:54.728Z,86.82
2019-03-12T08:03:51.746Z,88.06
2019-03-12T08:04:52.277Z,86.72
2019-03-12T08:05:52.228Z,84.92
2019-03-12T08:07:13.325Z,85.02
2019-03-12T08:08:17.230Z,86.68
2019-03-12T08:10:24.463Z,84.78
2019-03-12T08:14:53.134Z,84.17
2019-03-12T08:15:52.172Z,82.46
2019-03-12T08:18:06.533Z,85.53
2019-03-12T08:19:02.554Z,83.64
2019-03-12T08:20:23.551Z,84.21
2019-03-12T08:21:03.043Z,84.40
2019-03-12T08:22:04.497Z,83.73
2019-03-12T08:23:03.046Z,83.54
2019-03-12T08:24:06.540Z,82.59
2019-03-12T08:25:03.044Z,83.45
2019-03-12T08:26:03.540Z,82.03
2019-03-12T08:27:03.540Z,81.97
2019-03-12T08:28:03.540Z,81.59
2019-03-12T08:29:07.542Z,81.30
2019-03-12T08:30:04.042Z,81.87
2019-03-12T08:31:04.039Z,81.97
2019-03-12T08:32:04.053Z,80.35
2019-03-12T08:33:04.041Z,79.31
2019-03-12T08:34:04.537Z,78.83
2019-03-12T08:35:07.539Z,77.28
2019-03-12T08:36:04.537Z,78.23
2019-03-12T08:37:04.539Z,79.46
2019-03-12T08:38:05.039Z,78.80
2019-03-12T08:39:05.048Z,78.89
2019-03-12T08:40:09.049Z,78.23
2019-03-12T08:41:05.039Z,80.26
2019-03-12T08:42:05.539Z,82.82
2019-03-12T08:43:05.539Z,81.78
2019-03-12T08:44:05.540Z,81.02
2019-03-12T08:45:05.539Z,80.26
2019-03-12T08:47:41.189Z,79.79
2019-03-12T08:48:41.198Z,78.30
2019-03-12T08:49:41.213Z,76.88
2019-03-12T08:51:05.231Z,75.70
2019-03-12T08:51:45.193Z,75.89
2019-03-12T08:52:41.697Z,76.84
2019-03-12T08:54:02.696Z,76.18
2019-03-12T08:55:04.245Z,77.64
2019-03-12T08:56:03.221Z,78.69
2019-03-12T08:58:07.194Z,76.12
2019-03-12T09:00:14.427Z,75.51
2019-03-12T09:01:14.436Z,76.31
2019-03-12T09:02:14.437Z,76.40
2019-03-12T09:03:17.936Z,76.03
2019-03-12T09:04:14.936Z,76.88
2019-03-12T09:05:14.939Z,78.59
2019-03-12T09:06:14.935Z,79.20
2019-03-12T09:07:15.435Z,79.39
2019-03-12T09:08:19.436Z,78.44
2019-03-12T09:09:14.785Z,76.06
2019-03-12T09:10:15.440Z,74.35
2019-03-12T09:11:15.938Z,75.30
2019-03-12T09:12:15.935Z,74.54
2019-03-12T09:13:15.946Z,73.59
2019-03-12T09:14:19.941Z,75.02
2019-03-12T09:15:16.438Z,73.49
2019-03-12T09:16:16.436Z,72.26
2019-03-12T09:17:16.435Z,72.16
2019-03-12T09:18:16.435Z,72.74
2019-03-12T09:19:16.959Z,71.22
2019-03-12T09:20:19.935Z,72.83
2019-03-12T09:21:16.934Z,73.11
2019-03-12T09:22:37.957Z,73.06
2019-03-12T09:23:31.435Z,72.20
2019-03-12T09:24:17.435Z,73.53
2019-03-12T09:25:22.379Z,74.10
2019-03-12T09:26:17.435Z,72.30
2019-03-12T09:27:17.435Z,72.01
2019-03-12T09:28:17.931Z,72.20
2019-03-12T09:29:17.937Z,72.77
2019-03-12T09:30:21.435Z,72.49
2019-03-12T09:31:17.938Z,73.06
2019-03-12T09:32:18.434Z,73.15
2019-03-12T09:33:18.435Z,72.77
2019-03-12T09:34:18.442Z,71.06
2019-03-12T09:35:22.442Z,70.64
2019-03-12T09:37:50.676Z,74.07
2019-03-12T09:38:50.687Z,73.02
2019-03-12T09:39:50.683Z,73.02
2019-03-12T09:40:54.183Z,72.92
2019-03-12T09:41:51.183Z,73.49
2019-03-12T09:42:50.523Z,72.16
2019-03-12T09:43:51.188Z,71.50
2019-03-12T09:44:51.700Z,71.22
2019-03-12T09:45:54.181Z,72.32
2019-03-12T09:46:51.683Z,71.97
2019-03-12T09:47:51.682Z,72.16
2019-03-12T09:49:14.117Z,72.74
2019-03-12T09:49:52.183Z,73.40
2019-03-12T09:50:58.637Z,75.11
2019-03-12T09:51:52.193Z,74.63
2019-03-12T09:52:52.182Z,75.11
2019-03-12T09:53:52.683Z,75.21
2019-03-12T09:54:54.682Z,74.63
2019-03-12T09:55:56.689Z,74.82
2019-03-12T09:57:13.688Z,74.63
2019-03-12T09:58:14.188Z,72.64
2019-03-12T09:59:14.182Z,73.46
2019-03-12T09:59:52.528Z,73.84
2019-03-12T10:00:53.241Z,75.07
2019-03-12T10:01:59.392Z,74.26
2019-03-12T10:02:53.683Z,73.55
2019-03-12T10:04:14.787Z,72.74
2019-03-12T10:04:53.152Z,72.45
2019-03-12T10:05:54.181Z,71.12
2019-03-12T10:06:57.689Z,69.88
2019-03-12T10:07:54.181Z,70.64
2019-03-12T10:08:54.184Z,70.04
2019-03-12T10:09:54.681Z,71.31
2019-03-12T10:10:54.690Z,72.74
2019-03-12T10:11:54.687Z,72.92
2019-03-12T10:12:58.680Z,71.88
2019-03-12T10:13:55.181Z,71.50
2019-03-12T10:14:55.190Z,69.79
2019-03-12T10:15:55.189Z,70.93
2019-03-12T10:16:55.181Z,69.21
2019-03-12T10:17:55.685Z,71.12
2019-03-12T10:18:58.687Z,71.50
2019-03-12T10:19:55.687Z,69.60
2019-03-12T10:20:55.681Z,69.60
2019-03-12T10:21:56.184Z,69.63
2019-03-12T10:22:58.182Z,70.20
2019-03-12T10:24:21.181Z,71.25
2019-03-12T10:24:56.180Z,71.53
2019-03-12T10:25:56.682Z,66.78
2019-03-12T10:26:56.682Z,66.78
2019-03-12T10:27:56.680Z,65.25
2019-03-12T10:28:56.683Z,65.92
2019-03-12T10:30:01.182Z,64.97
2019-03-12T10:30:57.181Z,64.62
2019-03-12T10:31:57.189Z,63.86
2019-03-12T10:32:57.197Z,64.34
2019-03-12T10:33:57.682Z,65.58
2019-03-12T10:34:57.681Z,64.62
2019-03-12T10:36:24.319Z,62.91
2019-03-12T10:37:10.947Z,63.10
2019-03-12T10:37:57.272Z,62.46
2019-03-12T10:38:58.180Z,61.67
2019-03-12T10:40:19.185Z,61.38
2019-03-12T10:41:02.181Z,61.19
2019-03-12T10:45:23.711Z,65.16
2019-03-12T10:46:06.154Z,62.62
2019-03-12T10:47:02.651Z,64.15
2019-03-12T10:48:02.649Z,64.43
2019-03-12T10:49:36.636Z,64.02
2019-03-12T10:50:03.162Z,62.30
2019-03-12T10:51:06.648Z,63.29
2019-03-12T10:52:03.149Z,64.40
2019-03-12T10:53:03.148Z,63.64
2019-03-12T10:54:03.661Z,64.02
2019-03-12T10:55:13.113Z,64.02
2019-03-12T10:56:07.651Z,62.78
2019-03-12T10:57:03.665Z,62.69
2019-03-12T10:58:04.147Z,61.93
2019-03-12T10:59:25.155Z,61.93
2019-03-12T11:00:04.150Z,64.11
2019-03-12T11:01:04.150Z,64.90
2019-03-12T11:02:07.648Z,64.15
2019-03-12T11:03:04.648Z,64.15
2019-03-12T11:04:04.648Z,64.15
2019-03-12T11:05:04.655Z,61.48
2019-03-12T11:06:27.140Z,59.96
2019-03-12T11:07:16.590Z,59.86
2019-03-12T11:09:58.132Z,61.86
2019-03-12T11:10:38.075Z,61.10
2019-03-12T11:11:40.075Z,62.85
2019-03-12T11:12:40.651Z,61.42
2019-03-12T11:13:37.644Z,59.99
2019-03-12T11:14:37.641Z,59.70
2019-03-12T11:15:37.673Z,59.99
2019-03-12T11:16:37.651Z,61.35
2019-03-12T11:19:14.188Z,58.97
2019-03-12T11:20:14.197Z,58.69
2019-03-12T11:21:14.197Z,58.30
2019-03-12T11:22:14.698Z,59.06
2019-03-12T11:23:18.200Z,58.87
2019-03-12T11:24:14.697Z,58.02
2019-03-12T11:25:26.506Z,58.50
2019-03-12T11:26:14.291Z,57.26
2019-03-12T11:27:15.196Z,58.02
2019-03-12T11:28:18.198Z,58.21
2019-03-12T11:29:15.198Z,58.59
2019-03-12T11:30:15.710Z,59.26
2019-03-12T11:31:15.700Z,57.64
2019-03-12T11:32:15.715Z,56.59
2019-03-12T11:33:18.885Z,56.30
2019-03-12T11:34:16.199Z,56.90
2019-03-12T11:35:16.201Z,57.09
2019-03-12T11:36:16.202Z,55.73
2019-03-12T11:37:16.209Z,55.54
2019-03-12T11:38:16.249Z,57.82
2019-03-12T11:39:20.711Z,59.92
2019-03-12T11:40:16.832Z,60.40
2019-03-12T11:41:16.698Z,57.73
2019-03-12T11:42:16.697Z,58.11
2019-03-12T11:43:17.238Z,58.18
2019-03-12T11:44:17.198Z,58.69
2019-03-12T11:45:41.733Z,57.99
2019-03-12T11:46:17.199Z,58.21
2019-03-12T11:47:17.697Z,57.80
2019-03-12T11:48:17.791Z,57.42
2019-03-12T11:49:17.866Z,58.28
2019-03-12T11:50:21.954Z,58.56
2019-03-12T11:51:39.197Z,59.99
2019-03-12T11:52:18.238Z,59.99
2019-03-12T11:53:18.208Z,61.51
2019-03-12T11:54:17.798Z,60.78
2019-03-12T11:55:18.697Z,58.56
2019-03-12T11:56:43.850Z,58.94
2019-03-12T11:57:18.719Z,59.51
2019-03-12T11:58:18.695Z,57.80
2019-03-12T11:59:19.198Z,58.28
2019-03-12T12:00:21.215Z,58.75
2019-03-12T12:01:19.202Z,59.99
2019-03-12T12:02:45.163Z,59.03
2019-03-12T12:03:19.710Z,57.60
2019-03-12T12:04:19.698Z,57.70
2019-03-12T12:05:19.699Z,59.03
2019-03-12T12:06:19.715Z,60.85
2019-03-12T12:07:23.719Z,59.32
2019-03-12T12:08:20.227Z,59.89
2019-03-12T12:09:20.202Z,59.42
2019-03-12T12:10:20.205Z,59.48
2019-03-12T12:11:20.196Z,59.58
2019-03-12T12:12:20.705Z,58.81
2019-03-12T12:13:23.697Z,59.29
2019-03-12T12:14:20.699Z,59.20
2019-03-12T12:15:20.698Z,60.34
2019-03-12T12:16:46.131Z,62.53
2019-03-12T12:17:42.199Z,60.18
2019-03-12T12:18:25.204Z,63.42
2019-03-12T12:19:21.196Z,62.37
2019-03-12T12:20:29.458Z,63.23
2019-03-12T12:21:22.672Z,61.70
2019-03-12T12:23:56.664Z,58.53
2019-03-12T12:24:53.166Z,59.29
2019-03-12T12:25:53.666Z,59.39
2019-03-12T12:27:14.665Z,59.96
2019-03-12T12:27:53.724Z,61.38
2019-03-12T12:28:59.123Z,59.99
2019-03-12T12:29:54.166Z,58.44
2019-03-12T12:30:54.166Z,59.42
2019-03-12T12:31:56.167Z,58.28
2019-03-12T12:32:54.170Z,58.65
2019-03-12T12:33:54.166Z,57.70
2019-03-12T12:34:57.664Z,58.59
2019-03-12T12:35:54.666Z,56.75
2019-03-12T12:36:54.665Z,57.23
2019-03-12T12:37:54.671Z,58.78
2019-03-12T12:38:55.167Z,58.08
2019-03-12T12:39:58.681Z,57.80
2019-03-12T12:40:55.172Z,57.80
2019-03-12T12:41:55.168Z,58.75
2019-03-12T12:43:16.666Z,57.42
2019-03-12T12:43:55.670Z,57.70
2019-03-12T12:44:55.667Z,58.34
2019-03-12T12:46:20.721Z,57.39
2019-03-12T12:46:55.268Z,58.81
2019-03-12T12:47:56.176Z,59.96
2019-03-12T12:48:56.168Z,59.96
2019-03-12T12:49:56.167Z,58.91
2019-03-12T12:51:02.916Z,58.72
2019-03-12T12:51:59.664Z,57.58
2019-03-12T12:53:17.665Z,57.39
2019-03-12T12:53:56.665Z,58.06
2019-03-12T12:54:56.671Z,57.96
2019-03-12T12:56:18.185Z,58.06
2019-03-12T12:57:01.168Z,57.67
2019-03-12T12:57:57.165Z,57.87
2019-03-12T12:58:57.171Z,58.94
2019-03-12T12:59:57.670Z,58.94
2019-03-12T13:00:56.883Z,57.51
2019-03-12T13:01:57.665Z,57.60
2019-03-12T13:03:22.167Z,59.23
2019-03-12T13:03:58.171Z,57.99
2019-03-12T13:04:58.165Z,57.16
2019-03-12T13:05:58.165Z,56.85
2019-03-12T13:06:58.166Z,57.42
2019-03-12T13:08:02.179Z,58.08
2019-03-12T13:08:58.667Z,56.27
2019-03-12T13:09:58.679Z,57.80
2019-03-12T13:10:58.665Z,57.70
2019-03-12T13:14:08.910Z,57.99
2019-03-12T13:14:41.075Z,57.13
2019-03-12T13:17:02.160Z,57.60
2019-03-12T13:18:02.164Z,57.99
2019-03-12T13:19:06.662Z,57.80
2019-03-12T13:20:02.669Z,57.04
2019-03-12T13:21:02.662Z,56.72
2019-03-12T13:22:03.619Z,57.51
2019-03-12T13:23:24.162Z,59.99
2019-03-12T13:24:04.630Z,58.37
2019-03-12T13:25:06.166Z,57.42
2019-03-12T13:26:04.096Z,58.28
2019-03-12T13:27:03.162Z,59.80
2019-03-12T13:28:03.668Z,57.80
2019-03-12T13:29:24.665Z,57.13
2019-03-12T13:30:07.692Z,56.94
2019-03-12T13:31:03.665Z,58.56
2019-03-12T13:32:13.494Z,58.18
2019-03-12T13:33:25.170Z,57.99
2019-03-12T13:34:04.212Z,56.65
2019-03-12T13:35:04.662Z,57.80
2019-03-12T13:36:08.662Z,59.23
2019-03-12T13:37:04.659Z,59.42
2019-03-12T13:38:04.667Z,57.04
2019-03-12T13:39:04.693Z,55.49
2019-03-12T13:40:26.518Z,56.15
2019-03-12T13:41:11.168Z,55.68
2019-03-12T13:42:08.662Z,55.39
2019-03-12T13:43:05.233Z,55.58
2019-03-12T13:44:26.662Z,56.24
2019-03-12T13:45:05.680Z,55.68
2019-03-12T13:46:05.661Z,54.72
2019-03-12T13:47:09.662Z,54.72
2019-03-12T13:48:27.162Z,55.39
2019-03-12T13:49:06.181Z,55.20
2019-03-12T13:50:09.099Z,55.77
2019-03-12T13:51:06.171Z,57.20
2019-03-12T13:52:31.173Z,55.77
2019-03-12T13:53:06.662Z,55.68
2019-03-12T13:54:09.622Z,55.29
2019-03-12T13:55:06.666Z,55.77
2019-03-12T13:56:28.167Z,56.46
2019-03-12T13:57:07.161Z,57.23
2019-03-12T13:58:10.660Z,55.70
2019-03-12T13:59:28.160Z,56.18
2019-03-12T14:00:07.662Z,55.70
2019-03-12T14:01:07.660Z,56.75
2019-03-12T14:02:07.003Z,56.27
2019-03-12T14:03:12.161Z,55.99
2019-03-12T14:04:29.161Z,55.61
2019-03-12T14:05:29.157Z,56.46
2019-03-12T14:06:29.201Z,55.54
2019-03-12T14:07:29.161Z,56.97
2019-03-12T14:08:09.601Z,56.59
2019-03-12T14:09:12.160Z,55.54
2019-03-12T14:10:08.661Z,55.73
2019-03-12T14:11:08.662Z,56.30
2019-03-12T14:12:08.662Z,55.26
2019-03-12T14:13:09.164Z,55.63
2019-03-12T14:14:13.160Z,55.63
2019-03-12T14:15:10.594Z,55.76
2019-03-12T14:16:09.159Z,56.49
2019-03-12T14:17:30.660Z,55.63
2019-03-12T14:18:30.660Z,53.54
2019-03-12T14:19:09.666Z,53.16
2019-03-12T14:20:13.160Z,52.68
2019-03-12T14:21:10.160Z,52.78
2019-03-12T14:22:31.160Z,54.39
2019-03-12T14:23:10.167Z,55.83
2019-03-12T14:24:10.160Z,55.54
2019-03-12T14:25:14.160Z,54.68
2019-03-12T14:26:10.659Z,53.92
2019-03-12T14:27:10.660Z,54.97
2019-03-12T14:28:10.663Z,54.11
2019-03-12T14:29:13.094Z,52.59
2019-03-12T14:30:11.161Z,53.83
2019-03-12T14:31:15.161Z,54.97
2019-03-12T14:32:12.199Z,53.54
2019-03-12T14:33:11.163Z,53.25
2019-03-12T14:34:11.660Z,52.68
2019-03-12T14:35:11.660Z,52.59
2019-03-12T14:36:36.661Z,53.06
2019-03-12T14:37:11.663Z,52.87
2019-03-12T14:38:33.168Z,52.78
2019-03-12T14:39:12.159Z,51.92
2019-03-12T14:40:12.181Z,51.61
2019-03-12T14:41:12.160Z,52.66
2019-03-12T14:42:15.156Z,51.89
2019-03-12T14:43:12.665Z,51.70
2019-03-12T14:45:44.225Z,52.47
2019-03-12T14:46:45.154Z,52.47
2019-03-12T14:47:49.159Z,52.09
2019-03-12T14:48:45.162Z,51.80
2019-03-12T14:49:45.156Z,52.47
2019-03-12T14:50:45.658Z,52.75
2019-03-12T14:51:46.617Z,54.18
2019-03-12T14:52:45.656Z,55.13
2019-03-12T14:53:49.156Z,56.18
2019-03-12T14:56:17.392Z,53.23
2019-03-12T14:57:17.400Z,52.56
2019-03-12T14:58:17.401Z,53.61
2019-03-12T14:59:21.400Z,56.11
2019-03-12T15:00:38.901Z,55.83
2019-03-12T15:01:17.902Z,54.59
2019-03-12T15:02:17.902Z,52.87
2019-03-12T15:03:18.402Z,54.49
2019-03-12T15:04:18.400Z,53.54
2019-03-12T15:05:21.401Z,52.59
2019-03-12T15:06:18.402Z,51.64
2019-03-12T15:07:18.900Z,51.51
2019-03-12T15:08:18.900Z,51.80
2019-03-12T15:09:39.900Z,51.70
2019-03-12T15:11:54.127Z,52.37
2019-03-12T15:12:54.143Z,52.84
2019-03-12T15:13:54.138Z,53.32
2019-03-12T15:14:54.631Z,51.42
2019-03-12T15:16:19.132Z,51.16
2019-03-12T15:16:54.632Z,51.70
2019-03-12T15:17:54.629Z,51.42
2019-03-12T15:18:55.140Z,50.75
2019-03-12T15:20:16.139Z,51.16
2019-03-12T15:21:19.638Z,51.89
2019-03-12T15:21:55.137Z,51.51
2019-03-12T15:22:55.644Z,51.14
2019-03-12T15:23:55.633Z,51.04
2019-03-12T15:24:55.634Z,51.80
2019-03-12T15:26:20.632Z,52.68
2019-03-12T15:27:17.133Z,52.75
2019-03-12T15:29:27.499Z,51.89
2019-03-12T15:30:26.969Z,51.80
2019-03-12T15:31:45.506Z,51.80
2019-03-12T15:32:28.005Z,51.80
2019-03-12T15:33:28.009Z,52.18
2019-03-12T15:34:28.006Z,51.32
2019-03-12T15:35:28.006Z,51.80
2019-03-12T15:36:28.508Z,51.99
2019-03-12T15:37:53.005Z,51.42